Last 7 Days

Kelseyville Remote

Hourly Data | America/Los_Angeles
as of 5/4/26 1:49 PM PDT
Date & Time Temp (°F) RH (%) Dew Pt (°F) Wet Bulb (°F) BatVolt (V) Latest Rain (In) Max Rain Intensity (In/Hr) Precip 24Hr (In) Daily Rain (In) Daily Min Temp (°F) Daily Max Temp (°F)
5/4/26 - 1300 56.8 71 47.4 52.2 13.8 0.01 0.01 0.01 0.01 51.7 58.1
5/4/26 - 1200 57.4 66 46.3 51.8 13.8 0.00 - - 0.00 51.7 57.9
5/4/26 - 1100 57.0 65 45.5 51.3 13.8 0.00 - - 0.00 51.7 57.5
5/4/26 - 1000 56.3 66 45.1 50.8 13.8 0.00 - - 0.00 51.7 57.1
5/4/26 - 0900 54.4 70 44.9 49.9 13.8 0.00 - - 0.00 51.7 55.5
5/4/26 - 0800 52.3 78 45.6 49.3 13.7 0.00 - - 0.00 51.7 53.7
5/4/26 - 0700 52.2 77 45.2 49.1 13.0 0.00 - - 0.00 51.7 53.7
5/4/26 - 0600 53.2 75 45.6 49.7 12.8 0.00 - - 0.00 53.1 53.7
5/4/26 - 0500 53.4 75 45.6 49.8 12.8 0.00 - - 0.00 53.1 53.7
5/4/26 - 0400 53.5 73 45.2 49.6 12.9 0.00 - - 0.00 53.1 53.7
5/4/26 - 0300 53.6 73 45.2 49.7 12.9 0.00 - - 0.00 53.1 53.7
5/4/26 - 0200 53.3 76 45.8 49.9 12.9 0.00 - - 0.00 53.1 53.6
5/4/26 - 0100 53.6 75 45.9 50.0 13.0 0.00 - - 0.00 47.5 67.8
5/4/26 - 0000 54.9 70 45.1 50.2 13.0 0.00 - - 0.00 47.5 67.8
5/3/26 - 2300 55.2 65 43.7 49.6 13.0 0.00 - - 0.00 47.5 67.8
5/3/26 - 2200 55.3 64 43.5 49.5 13.0 0.00 - - 0.00 47.5 67.8
5/3/26 - 2100 55.7 65 44.2 50.1 13.0 0.00 - - 0.00 47.5 67.8
5/3/26 - 2000 57.4 63 45.1 51.2 13.1 0.00 - - 0.00 47.5 67.8
5/3/26 - 1900 59.7 58 44.8 51.9 13.8 0.00 - - 0.00 47.5 67.8
5/3/26 - 1800 63.2 52 45.4 53.6 13.7 0.00 - - 0.00 47.5 67.8
5/3/26 - 1700 66.1 49 46.5 55.1 13.6 0.00 - - 0.00 47.5 67.8
5/3/26 - 1600 66.7 52 48.3 56.3 13.6 0.00 - - 0.00 47.5 67.8
5/3/26 - 1500 64.4 55 48.0 55.4 13.6 0.00 - - 0.00 47.5 66.9
5/3/26 - 1400 64.3 56 48.2 55.4 13.6 0.00 - - 0.00 47.5 66.3
5/3/26 - 1300 62.8 57 47.6 54.6 13.7 0.00 - - 0.00 47.5 64.4
5/3/26 - 1200 61.3 60 47.5 54.0 13.7 0.00 - - 0.00 47.5 62.9
5/3/26 - 1100 59.4 63 46.8 52.9 13.8 0.00 - - 0.00 47.5 61.5
5/3/26 - 1000 56.5 70 46.9 51.9 13.8 0.00 - - 0.00 47.5 57.6
5/3/26 - 0900 54.4 74 46.4 50.6 13.9 0.00 - - 0.00 47.5 55.5
5/3/26 - 0800 52.3 80 46.2 49.6 13.7 0.00 - - 0.00 47.5 53.2
5/3/26 - 0700 49.7 83 44.7 47.6 12.9 0.00 - - 0.00 47.5 51.5
5/3/26 - 0600 47.8 84 43.2 46.0 12.8 0.00 - - 0.00 47.5 51.2
5/3/26 - 0500 48.2 82 42.8 45.9 12.8 0.00 - - 0.00 47.6 51.2
5/3/26 - 0400 48.9 82 43.7 46.7 12.8 0.00 - - 0.00 48.5 51.2
5/3/26 - 0300 49.5 83 44.6 47.5 12.9 0.00 - - 0.00 48.8 51.2
5/3/26 - 0200 50.3 83 45.3 48.2 12.9 0.00 - - 0.00 49.7 51.2
5/3/26 - 0100 51.8 80 45.9 49.3 12.9 0.00 - - 0.00 49.7 79.8
5/3/26 - 0000 53.0 80 46.9 50.3 13.0 0.00 - - 0.00 49.7 79.8
5/2/26 - 2300 54.6 76 47.3 51.3 13.0 0.00 - - 0.00 49.7 79.8
5/2/26 - 2200 56.6 73 48.0 52.5 13.0 0.00 - - 0.00 49.7 79.8
5/2/26 - 2100 59.3 65 47.5 53.2 13.0 0.00 - - 0.00 49.7 79.8
5/2/26 - 2000 64.8 49 45.1 53.9 13.1 0.00 - - 0.00 49.7 79.8
5/2/26 - 1900 68.4 41 43.8 54.5 13.6 0.00 - - 0.00 49.7 79.8
5/2/26 - 1800 70.4 34 40.7 53.8 13.6 0.00 - - 0.00 49.7 79.8
5/2/26 - 1700 73.6 26 37.0 53.3 13.5 0.00 - - 0.00 49.7 79.8
5/2/26 - 1600 75.3 23 35.0 53.1 13.5 0.00 - - 0.00 49.7 79.8
5/2/26 - 1500 77.8 18 29.9 52.3 13.5 0.00 - - 0.00 49.7 79.8
5/2/26 - 1400 77.8 24 37.7 55.0 13.5 0.00 - - 0.00 49.7 79.8
5/2/26 - 1300 74.3 31 41.7 55.4 13.6 0.00 - - 0.00 49.7 76.6
5/2/26 - 1200 69.8 47 48.7 57.4 13.6 0.00 - - 0.00 49.7 72.3
5/2/26 - 1100 66.3 57 50.8 57.6 13.6 0.00 - - 0.00 49.7 68.5
5/2/26 - 1000 64.1 59 49.7 56.2 13.7 0.00 - - 0.00 49.7 65.2
5/2/26 - 0900 59.1 66 47.7 53.3 13.8 0.00 - - 0.00 49.7 63.7
5/2/26 - 0800 52.3 77 45.4 49.2 13.9 0.00 - - 0.00 49.7 55.6
5/2/26 - 0700 50.5 80 44.5 47.9 12.9 0.00 - - 0.00 49.7 55.6
5/2/26 - 0600 50.5 82 45.2 48.3 12.8 0.00 - - 0.00 49.7 55.6
5/2/26 - 0500 50.0 82 44.7 47.8 12.8 0.00 - - 0.00 49.7 55.6
5/2/26 - 0400 51.1 84 46.3 49.2 12.8 0.00 - - 0.00 50.4 55.6
5/2/26 - 0300 51.5 84 46.9 49.7 12.9 0.00 - - 0.00 50.7 55.6
5/2/26 - 0200 53.8 82 48.6 51.7 12.9 0.00 - - 0.00 52.2 55.6
5/2/26 - 0100 56.3 77 49.3 53.1 12.9 0.00 - - 0.00 44.6 83.7
5/2/26 - 0000 58.9 75 51.1 55.2 12.9 0.00 - - 0.00 44.6 83.7
5/1/26 - 2300 60.3 72 51.2 55.8 13.0 0.00 - - 0.00 44.6 83.7
5/1/26 - 2200 64.9 62 51.4 57.5 13.0 0.00 - - 0.00 44.6 83.7
5/1/26 - 2100 67.6 59 52.8 59.1 13.0 0.00 - - 0.00 44.6 83.7
5/1/26 - 2000 73.4 49 52.8 60.8 13.0 0.00 - - 0.00 44.6 83.7
5/1/26 - 1900 78.3 31 44.5 57.7 13.5 0.00 - - 0.00 44.6 83.7
5/1/26 - 1800 82.2 20 37.6 55.8 13.4 0.00 - - 0.00 44.6 83.7
5/1/26 - 1700 82.4 20 37.8 56.0 13.4 0.00 - - 0.00 44.6 83.7
5/1/26 - 1600 82.8 21 39.1 56.5 13.4 0.00 - - 0.00 44.6 83.4
5/1/26 - 1500 81.7 26 43.6 58.0 13.5 0.00 - - 0.00 44.6 83.2
5/1/26 - 1400 79.9 33 48.3 59.8 13.5 0.00 - - 0.00 44.6 80.6
5/1/26 - 1300 77.7 35 47.9 59.1 13.5 0.00 - - 0.00 44.6 80.3
5/1/26 - 1200 72.5 41 47.5 57.6 13.6 0.00 - - 0.00 44.6 74.6
5/1/26 - 1100 69.4 46 47.8 56.8 13.6 0.00 - - 0.00 44.6 71.0
5/1/26 - 1000 67.5 48 47.0 55.9 13.7 0.00 - - 0.00 44.6 69.1
5/1/26 - 0900 63.3 50 44.6 53.2 13.7 0.00 - - 0.00 44.6 66.7
5/1/26 - 0800 54.8 64 42.9 49.0 13.8 0.00 - - 0.00 44.6 58.6
5/1/26 - 0700 46.5 82 41.1 44.2 13.0 0.00 - - 0.00 44.6 53.6
5/1/26 - 0600 46.3 79 40.2 43.7 12.8 0.00 - - 0.00 44.8 53.6
5/1/26 - 0500 47.2 77 40.4 44.2 12.8 0.00 - - 0.00 46.6 53.6
5/1/26 - 0400 48.0 78 41.5 45.2 12.8 0.00 - - 0.00 47.2 53.6
5/1/26 - 0300 49.3 74 41.5 45.8 12.9 0.00 - - 0.00 48.6 53.6
5/1/26 - 0200 51.9 65 40.5 46.6 12.9 0.00 - - 0.00 50.6 53.6
5/1/26 - 0100 54.7 61 41.7 48.4 12.9 0.00 - - 0.00 40.8 83.6
5/1/26 - 0000 57.3 59 43.1 50.2 13.0 0.00 - - 0.00 40.8 83.6
4/30/26 - 2300 58.6 58 43.9 51.1 13.0 0.00 - - 0.00 40.8 83.6
4/30/26 - 2200 60.7 56 44.7 52.3 13.0 0.00 - - 0.00 40.8 83.6
4/30/26 - 2100 67.8 38 40.8 53.0 13.0 0.00 - - 0.00 40.8 83.6
4/30/26 - 2000 74.7 28 39.5 54.6 13.1 0.00 - - 0.00 40.8 83.6
4/30/26 - 1900 79.0 29 44.4 57.7 13.5 0.00 - - 0.00 40.8 83.6
4/30/26 - 1800 81.9 27 45.0 58.6 13.4 0.00 - - 0.00 40.8 83.6
4/30/26 - 1700 82.6 22 39.3 56.6 13.4 0.00 - - 0.00 40.8 83.6
4/30/26 - 1600 82.4 18 35.0 55.1 13.5 0.00 - - 0.00 40.8 83.6
4/30/26 - 1500 81.4 17 33.0 54.2 13.5 0.00 - - 0.00 40.8 82.6
4/30/26 - 1400 78.5 27 41.1 56.3 13.5 0.00 - - 0.00 40.8 80.7
4/30/26 - 1300 75.2 33 43.8 56.5 13.5 0.00 - - 0.00 40.8 77.7
4/30/26 - 1200 71.1 34 41.4 54.2 13.6 0.00 - - 0.00 40.8 72.9
4/30/26 - 1100 67.2 39 41.5 53.1 13.6 0.00 - - 0.00 40.8 69.4
4/30/26 - 1000 64.3 45 42.3 52.5 13.7 0.00 - - 0.00 40.8 65.5
4/30/26 - 0900 59.2 49 40.1 49.5 13.8 0.00 - - 0.00 40.8 62.3
4/30/26 - 0800 51.3 63 38.9 45.5 13.9 0.00 - - 0.00 40.8 57.0
4/30/26 - 0700 42.0 81 36.7 39.8 13.0 0.00 - - 0.00 40.8 48.9
4/30/26 - 0600 41.6 82 36.4 39.5 12.8 0.00 - - 0.00 41.0 48.9
4/30/26 - 0500 42.6 81 37.0 40.3 12.8 0.00 - - 0.00 42.1 48.9
4/30/26 - 0400 43.6 77 36.9 40.8 12.8 0.00 - - 0.00 42.7 48.9
4/30/26 - 0300 44.7 75 37.3 41.5 12.9 0.00 - - 0.00 44.1 48.9
4/30/26 - 0200 47.3 71 38.2 43.3 12.9 0.00 - - 0.00 44.9 48.9
4/30/26 - 0100 49.3 70 39.8 45.0 12.9 0.00 - - 0.00 40.2 79.4
4/30/26 - 0000 51.3 65 39.7 45.9 13.0 0.00 - - 0.00 40.2 79.4
4/29/26 - 2300 54.7 54 38.5 46.9 13.0 0.00 - - 0.00 40.2 79.4
4/29/26 - 2200 58.0 51 40.2 49.1 13.0 0.00 - - 0.00 40.2 79.4
4/29/26 - 2100 62.5 46 41.2 51.3 13.0 0.00 - - 0.00 40.2 79.4
4/29/26 - 2000 70.3 31 38.6 52.8 13.1 0.00 - - 0.00 40.2 79.4
4/29/26 - 1900 74.2 28 38.8 54.2 13.6 0.00 - - 0.00 40.2 79.4
4/29/26 - 1800 76.4 28 41.2 55.7 13.5 0.00 - - 0.00 40.2 79.4
4/29/26 - 1700 78.0 26 40.6 55.9 13.5 0.00 - - 0.00 40.2 79.4
4/29/26 - 1600 78.0 22 36.3 54.3 13.5 0.00 - - 0.00 40.2 79.4
4/29/26 - 1500 76.2 25 37.7 54.3 13.5 0.00 - - 0.00 40.2 78.4
4/29/26 - 1400 73.9 29 39.4 54.3 13.6 0.00 - - 0.00 40.2 75.3
4/29/26 - 1300 71.1 37 43.1 55.0 13.6 0.00 - - 0.00 40.2 72.8
4/29/26 - 1200 68.0 43 44.8 54.9 13.6 0.00 - - 0.00 40.2 69.8
4/29/26 - 1100 64.4 50 45.3 53.9 13.7 0.00 - - 0.00 40.2 65.8
4/29/26 - 1000 62.6 53 45.2 53.3 13.7 0.00 - - 0.00 40.2 65.4
4/29/26 - 0900 58.3 59 43.8 50.9 13.8 0.00 - - 0.00 40.2 60.6
4/29/26 - 0800 49.6 75 41.8 46.1 13.9 0.00 - - 0.00 40.2 55.5
4/29/26 - 0700 41.3 86 37.5 39.8 12.9 0.00 - - 0.00 40.2 47.2
4/29/26 - 0600 40.7 87 37.2 39.3 12.7 0.00 - - 0.00 40.2 47.2
4/29/26 - 0500 41.9 85 37.7 40.2 12.8 0.00 - - 0.00 40.8 47.2
4/29/26 - 0400 43.6 84 39.0 41.7 12.8 0.00 - - 0.00 43.0 47.2
4/29/26 - 0300 45.7 78 39.1 42.9 12.8 0.00 - - 0.00 43.7 47.2
4/29/26 - 0200 46.8 79 40.6 44.1 12.9 0.00 - - 0.00 46.4 47.2
4/29/26 - 0100 47.9 76 40.6 44.7 12.9 0.00 - - 0.00 38.7 74.7
4/29/26 - 0000 49.7 73 41.4 46.0 13.0 0.00 - - 0.00 38.7 74.7
4/28/26 - 2300 52.0 68 41.9 47.3 13.0 0.00 - - 0.00 38.7 74.7
4/28/26 - 2200 54.4 63 41.9 48.4 13.0 0.00 - - 0.00 38.7 74.7
4/28/26 - 2100 60.9 48 41.2 50.6 13.0 0.00 - - 0.00 38.7 74.7
4/28/26 - 2000 65.3 42 41.9 52.6 13.1 0.00 - - 0.00 38.7 74.7
4/28/26 - 1900 68.9 40 43.7 54.6 13.6 0.00 - - 0.00 38.7 74.7
4/28/26 - 1800 71.4 33 40.7 54.1 13.6 0.00 - - 0.00 38.7 74.7
4/28/26 - 1700 71.8 28 37.2 52.8 13.6 0.00 - - 0.00 38.7 74.7
4/28/26 - 1600 70.8 26 34.1 51.4 13.6 0.00 - - 0.00 38.7 72.6
4/28/26 - 1500 69.7 30 37.0 52.1 13.6 0.00 - - 0.00 38.7 70.5
4/28/26 - 1400 68.5 35 39.5 52.6 13.6 0.00 - - 0.00 38.7 70.2
4/28/26 - 1300 66.3 42 42.8 53.4 13.6 0.00 - - 0.00 38.7 67.6
4/28/26 - 1200 63.6 50 44.4 53.2 13.7 0.00 - - 0.00 38.7 65.2
4/28/26 - 1100 60.4 56 44.5 52.1 13.7 0.00 - - 0.00 38.7 61.8
4/28/26 - 1000 57.9 59 43.6 50.6 13.8 0.00 - - 0.00 38.7 59.8
4/28/26 - 0900 53.2 67 42.4 48.1 13.9 0.00 - - 0.00 38.7 56.8
4/28/26 - 0800 46.7 80 40.9 44.2 14.0 0.00 - - 0.00 38.7 49.7
4/28/26 - 0700 39.6 89 36.6 38.4 13.0 0.00 - - 0.00 38.7 46.0
4/28/26 - 0600 40.4 88 37.2 39.1 12.8 0.00 - - 0.00 38.7 46.0
4/28/26 - 0500 40.8 88 37.6 39.5 12.8 0.00 - - 0.00 39.8 46.0
4/28/26 - 0400 41.9 87 38.3 40.5 12.8 0.00 - - 0.00 40.2 46.0
4/28/26 - 0300 42.7 85 38.4 41.0 12.9 0.00 - - 0.00 42.1 46.0
4/28/26 - 0200 45.3 81 39.9 43.0 12.9 0.00 - - 0.00 43.6 46.0
4/28/26 - 0100 46.8 80 41.0 44.4 12.9 0.00 - - 0.00 45.8 66.7
4/28/26 - 0000 48.3 77 41.6 45.3 13.0 0.00 - - 0.00 47.4 66.7
4/27/26 - 2300 49.9 75 42.3 46.5 13.0 0.00 - - 0.00 47.5 66.7
4/27/26 - 2200 52.7 70 43.0 48.1 13.0 0.00 - - 0.00 47.5 66.7
4/27/26 - 2100 56.7 56 41.3 49.0 13.0 0.00 - - 0.00 47.5 66.7
4/27/26 - 2000 59.0 52 41.4 50.1 13.1 0.00 - - 0.00 47.5 66.7
4/27/26 - 1900 60.6 51 42.3 51.1 13.2 0.00 - - 0.00 47.5 66.7
4/27/26 - 1800 62.6 44 39.8 50.8 13.7 0.00 - - 0.00 47.5 66.7
4/27/26 - 1700 65.6 33 36.0 50.2 13.6 0.00 - - 0.00 47.5 66.7
4/27/26 - 1600 65.2 34 36.4 50.3 13.6 0.00 - - 0.00 47.5 66.7
4/27/26 - 1500 64.7 32 34.5 49.4 13.7 0.00 - - 0.00 47.5 66.7
4/27/26 - 1400 62.0 38 35.9 48.9 13.7 0.00 - - 0.00 47.5 63.5
Max 82.8 89 52.8 60.8 14.0 0.01 - - 0.01 53.1 83.7
Avg 59.8 58 42.6 50.5 13.3 0.00 - - - - -
Min 39.6 17 29.9 38.4 12.7 0.00 - - 0.00 38.7 46.0
Total - - - - - 0.01 - - - - -